createdAt,value
2018-12-22T00:01:21.416Z,2.27
2018-12-22T00:03:54.953Z,2.27
2018-12-22T00:06:25.490Z,2.07
2018-12-22T00:08:56.113Z,2.33
2018-12-22T00:11:26.813Z,2.17
2018-12-22T00:13:57.323Z,2.13
2018-12-22T00:16:27.878Z,2.17
2018-12-22T00:18:58.401Z,1.83
2018-12-22T00:21:28.910Z,1.73
2018-12-22T00:24:00.305Z,2.53
2018-12-22T00:26:30.819Z,1.97
2018-12-22T00:29:01.435Z,2.07
2018-12-22T00:31:31.922Z,2.37
2018-12-22T00:34:02.427Z,2.37
2018-12-22T00:36:32.929Z,2.00
2018-12-22T00:39:06.268Z,1.90
2018-12-22T00:41:36.867Z,1.93
2018-12-22T00:44:07.497Z,1.97
2018-12-22T00:46:38.117Z,1.73
2018-12-22T00:49:08.687Z,2.53
2018-12-22T00:51:39.402Z,1.67
2018-12-22T00:54:09.916Z,1.50
2018-12-22T00:56:40.411Z,1.70
2018-12-22T00:59:11.953Z,1.40
2018-12-22T01:01:42.535Z,1.33
2018-12-22T01:04:13.050Z,1.70
2018-12-22T01:06:43.559Z,1.73
2018-12-22T01:09:14.037Z,1.90
2018-12-22T01:11:44.533Z,1.60
2018-12-22T01:14:15.001Z,1.53
2018-12-22T01:16:45.504Z,1.80
2018-12-22T01:19:16.031Z,2.00
2018-12-22T01:21:46.539Z,1.97
2018-12-22T01:24:17.029Z,1.97
2018-12-22T01:26:47.554Z,1.60
2018-12-22T01:29:18.106Z,1.70
2018-12-22T01:31:48.666Z,2.00
2018-12-22T01:34:19.131Z,2.00
2018-12-22T01:36:49.592Z,1.37
2018-12-22T01:39:20.061Z,1.67
2018-12-22T01:41:50.582Z,1.63
2018-12-22T01:44:21.106Z,2.03
2018-12-22T01:46:51.633Z,1.43
2018-12-22T01:49:22.090Z,1.67
2018-12-22T01:51:52.618Z,1.90
2018-12-22T01:54:23.339Z,1.50
2018-12-22T01:56:53.869Z,2.07
2018-12-22T01:59:24.392Z,1.40
2018-12-22T02:01:55.438Z,1.50
2018-12-22T02:04:25.914Z,2.27
2018-12-22T02:06:56.538Z,1.20
2018-12-22T02:09:27.087Z,5.47
2018-12-22T02:11:58.545Z,5.20
2018-12-22T02:14:29.098Z,1.87
2018-12-22T02:16:59.759Z,1.57
2018-12-22T02:19:31.406Z,1.40
2018-12-22T02:22:02.343Z,1.57
2018-12-22T02:24:34.035Z,1.40
2018-12-22T02:27:04.507Z,1.20
2018-12-22T02:29:35.463Z,2.23
2018-12-22T02:32:05.994Z,1.67
2018-12-22T02:34:37.404Z,1.90
2018-12-22T02:37:08.436Z,1.73
2018-12-22T02:39:38.874Z,1.67
2018-12-22T02:42:10.497Z,1.47
2018-12-22T02:44:40.979Z,1.60
2018-12-22T02:47:11.465Z,1.90
2018-12-22T02:49:42.024Z,1.67
2018-12-22T02:52:12.495Z,1.30
2018-12-22T02:54:42.974Z,1.70
2018-12-22T02:57:13.468Z,1.37
2018-12-22T02:59:43.988Z,1.37
2018-12-22T03:02:14.464Z,1.40
2018-12-22T03:04:45.036Z,1.43
2018-12-22T03:07:16.734Z,1.30
2018-12-22T03:09:47.297Z,1.30
2018-12-22T03:12:17.812Z,1.07
2018-12-22T03:14:48.348Z,1.20
2018-12-22T03:17:18.842Z,1.00
2018-12-22T03:19:49.370Z,1.10
2018-12-22T03:22:19.840Z,1.33
2018-12-22T03:24:50.290Z,1.00
2018-12-22T03:27:20.845Z,0.90
2018-12-22T03:29:58.039Z,1.00
2018-12-22T03:32:28.528Z,1.10
2018-12-22T03:34:59.025Z,0.80
2018-12-22T03:37:29.510Z,0.80
2018-12-22T03:40:01.157Z,1.30
2018-12-22T03:42:31.613Z,1.47
2018-12-22T03:45:02.090Z,0.90
2018-12-22T03:47:32.560Z,1.03
2018-12-22T03:50:03.036Z,0.97
2018-12-22T03:52:33.547Z,0.87
2018-12-22T03:55:04.171Z,0.77
2018-12-22T03:57:34.682Z,0.97
2018-12-22T04:00:05.445Z,0.80
2018-12-22T04:02:35.971Z,0.90
2018-12-22T04:05:07.651Z,0.83
2018-12-22T04:07:38.317Z,0.97
2018-12-22T04:10:09.142Z,0.90
2018-12-22T04:12:39.674Z,0.50
2018-12-22T04:15:10.165Z,0.50
2018-12-22T04:17:40.655Z,0.70
2018-12-22T04:20:11.103Z,0.50
2018-12-22T04:22:41.617Z,0.70
2018-12-22T04:25:12.139Z,0.70
2018-12-22T04:27:42.619Z,0.53
2018-12-22T04:30:13.088Z,0.80
2018-12-22T04:32:43.547Z,0.80
2018-12-22T04:35:14.014Z,0.70
2018-12-22T04:37:44.499Z,0.50
2018-12-22T04:40:14.960Z,0.70
2018-12-22T04:42:45.421Z,0.63
2018-12-22T04:45:15.877Z,0.80
2018-12-22T04:47:46.370Z,0.77
2018-12-22T04:50:17.849Z,0.60
2018-12-22T04:52:48.370Z,0.60
2018-12-22T04:55:18.866Z,0.67
2018-12-22T04:57:49.305Z,0.50
2018-12-22T05:00:19.793Z,0.90
2018-12-22T05:02:50.333Z,1.07
2018-12-22T05:05:20.824Z,0.80
2018-12-22T05:07:51.314Z,0.60
2018-12-22T05:10:21.777Z,0.53
2018-12-22T05:12:52.237Z,0.90
2018-12-22T05:15:22.745Z,0.53
2018-12-22T05:17:53.207Z,0.70
2018-12-22T05:20:23.711Z,0.40
2018-12-22T05:22:54.194Z,0.40
2018-12-22T05:25:24.694Z,0.37
2018-12-22T05:27:55.170Z,0.20
2018-12-22T05:30:25.627Z,0.33
2018-12-22T05:32:56.102Z,0.30
2018-12-22T05:35:26.700Z,0.30
2018-12-22T05:37:57.213Z,0.30
2018-12-22T05:40:27.658Z,0.27
2018-12-22T05:42:58.210Z,0.27
2018-12-22T05:45:28.682Z,0.27
2018-12-22T05:47:59.133Z,0.20
2018-12-22T05:50:29.639Z,0.30
2018-12-22T05:53:00.126Z,0.20
2018-12-22T05:55:30.671Z,0.20
2018-12-22T05:58:01.150Z,0.27
2018-12-22T06:00:31.813Z,0.23
2018-12-22T06:03:02.294Z,0.53
2018-12-22T06:05:32.790Z,0.30
2018-12-22T06:08:03.276Z,0.30
2018-12-22T06:10:33.804Z,0.30
2018-12-22T06:13:04.387Z,0.40
2018-12-22T06:15:34.912Z,0.27
2018-12-22T06:18:05.420Z,0.20
2018-12-22T06:20:36.047Z,0.40
2018-12-22T06:23:06.651Z,0.30
2018-12-22T06:25:37.151Z,0.30
2018-12-22T06:28:07.631Z,0.40
2018-12-22T06:30:38.358Z,0.53
2018-12-22T06:33:08.966Z,0.30
2018-12-22T06:35:39.479Z,0.30
2018-12-22T06:38:11.127Z,0.30
2018-12-22T06:40:41.605Z,0.90
2018-12-22T06:43:12.067Z,0.43
2018-12-22T06:45:42.946Z,0.80
2018-12-22T06:48:13.518Z,0.40
2018-12-22T06:50:44.124Z,0.30
2018-12-22T06:53:14.594Z,0.20
2018-12-22T06:55:45.082Z,0.40
2018-12-22T06:58:15.520Z,0.37
2018-12-22T07:00:46.039Z,0.30
2018-12-22T07:03:16.539Z,0.30
2018-12-22T07:05:47.266Z,0.30
2018-12-22T07:08:17.837Z,0.30
2018-12-22T07:10:48.407Z,0.40
2018-12-22T07:13:18.937Z,0.23
2018-12-22T07:15:49.501Z,0.30
2018-12-22T07:18:20.026Z,0.40
2018-12-22T07:20:50.515Z,0.40
2018-12-22T07:23:21.377Z,0.30
2018-12-22T07:42:18.954Z,0.40
2018-12-22T07:44:49.489Z,0.30
2018-12-22T07:47:20.008Z,0.20
2018-12-22T07:49:50.477Z,0.40
2018-12-22T07:52:20.920Z,0.30
2018-12-22T07:54:51.414Z,0.40
2018-12-22T07:57:23.015Z,0.40
2018-12-22T07:59:53.561Z,0.30
2018-12-22T08:02:24.047Z,0.50
2018-12-22T08:04:55.532Z,0.50
2018-12-22T08:07:26.080Z,0.50
2018-12-22T08:09:56.629Z,0.30
2018-12-22T08:12:27.234Z,0.40
2018-12-22T08:31:16.258Z,0.40
2018-12-22T08:33:47.128Z,0.30
2018-12-22T08:36:17.627Z,1.00
2018-12-22T08:38:48.865Z,0.30
2018-12-22T08:41:19.429Z,0.47
2018-12-22T08:43:50.139Z,0.40
2018-12-22T08:46:20.813Z,0.30
2018-12-22T08:48:51.348Z,0.40
2018-12-22T08:51:21.825Z,0.47
2018-12-22T08:53:54.435Z,0.50
2018-12-22T08:56:25.797Z,0.70
2018-12-22T08:58:56.303Z,0.40
2018-12-22T09:01:26.833Z,0.30
2018-12-22T09:03:57.294Z,0.50
2018-12-22T09:06:27.801Z,0.40
2018-12-22T09:09:03.016Z,0.40
2018-12-22T09:11:33.712Z,1.03
2018-12-22T09:14:04.386Z,1.60
2018-12-22T09:16:36.032Z,2.37
2018-12-22T09:19:07.843Z,2.20
2018-12-22T09:21:39.270Z,2.43
2018-12-22T09:24:10.229Z,2.40
2018-12-22T09:26:41.666Z,1.50
2018-12-22T09:29:12.419Z,1.60
2018-12-22T09:34:35.301Z,3.10
2018-12-22T09:37:07.753Z,5.60
2018-12-22T09:39:39.250Z,3.17
2018-12-22T09:42:10.683Z,0.70
2018-12-22T09:44:43.883Z,0.63
2018-12-22T09:47:16.589Z,0.47
2018-12-22T09:49:48.733Z,0.93
2018-12-22T09:52:21.114Z,0.70
2018-12-22T09:54:51.837Z,0.80
2018-12-22T09:57:22.376Z,0.80
2018-12-22T09:59:52.897Z,1.07
2018-12-22T10:02:23.391Z,0.90
2018-12-22T10:04:54.098Z,1.50
2018-12-22T10:07:24.561Z,1.50
2018-12-22T10:09:55.206Z,0.80
2018-12-22T10:12:25.750Z,0.93
2018-12-22T10:14:56.438Z,0.40
2018-12-22T10:17:27.149Z,0.40
2018-12-22T10:19:57.601Z,2.20
2018-12-22T10:22:28.110Z,0.90
2018-12-22T10:24:58.606Z,1.03
2018-12-22T10:27:29.341Z,1.23
2018-12-22T10:29:59.962Z,0.90
2018-12-22T10:32:30.590Z,1.27
2018-12-22T10:35:01.384Z,1.67
2018-12-22T10:37:31.889Z,1.37
2018-12-22T10:40:02.944Z,1.40
2018-12-22T10:42:34.667Z,1.67
2018-12-22T10:45:05.767Z,1.80
2018-12-22T10:47:36.281Z,1.77
2018-12-22T10:50:06.796Z,1.50
2018-12-22T10:52:37.319Z,1.07
2018-12-22T10:55:09.710Z,1.00
2018-12-22T10:57:40.698Z,0.97
2018-12-22T11:00:15.487Z,0.80
2018-12-22T11:02:46.005Z,1.30
2018-12-22T11:05:17.904Z,2.10
2018-12-22T11:07:49.492Z,1.57
2018-12-22T11:10:24.296Z,1.43
2018-12-22T11:12:58.658Z,1.57
2018-12-22T11:15:29.271Z,1.07
2018-12-22T11:18:00.172Z,0.83
2018-12-22T11:20:30.806Z,0.60
2018-12-22T11:23:01.423Z,0.80
2018-12-22T11:25:32.097Z,0.83
2018-12-22T11:28:02.764Z,1.10
2018-12-22T11:30:40.474Z,1.00
2018-12-22T11:33:11.103Z,1.00
2018-12-22T11:35:41.844Z,1.10
2018-12-22T11:38:12.399Z,1.00
2018-12-22T11:40:43.118Z,0.83
2018-12-22T11:43:13.863Z,0.97
2018-12-22T11:45:44.502Z,1.20
2018-12-22T11:49:28.510Z,0.90
2018-12-22T11:51:59.100Z,1.10
2018-12-22T11:54:29.659Z,1.73
2018-12-22T11:57:00.329Z,1.20
2018-12-22T11:59:31.876Z,0.73
2018-12-22T12:02:09.488Z,1.37
2018-12-22T12:04:35.674Z,1.00
2018-12-22T12:07:06.239Z,0.90
2018-12-22T12:09:36.914Z,1.10
2018-12-22T12:12:07.519Z,1.50
2018-12-22T12:14:38.410Z,1.47
2018-12-22T12:17:31.702Z,1.57
2018-12-22T12:20:02.256Z,1.30
2018-12-22T12:22:33.451Z,0.97
2018-12-22T12:25:04.269Z,1.07
2018-12-22T12:27:34.875Z,1.00
2018-12-22T12:30:07.975Z,0.60
2018-12-22T12:32:38.497Z,0.63
2018-12-22T12:35:09.342Z,0.90
2018-12-22T12:37:46.182Z,0.90
2018-12-22T12:40:18.554Z,1.10
2018-12-22T12:42:49.099Z,1.00
2018-12-22T12:45:19.687Z,1.70
2018-12-22T12:47:50.196Z,1.30
2018-12-22T12:50:23.206Z,1.20
2018-12-22T12:52:53.730Z,1.20
2018-12-22T12:55:30.953Z,1.20
2018-12-22T12:58:03.174Z,1.37
2018-12-22T13:00:34.975Z,1.60
2018-12-22T13:03:09.867Z,1.83
2018-12-22T13:05:40.649Z,2.00
2018-12-22T13:08:14.240Z,1.43
2018-12-22T13:10:44.826Z,1.90
2018-12-22T13:13:40.679Z,1.60
2018-12-22T13:16:11.232Z,1.30
2018-12-22T13:18:41.896Z,1.70
2018-12-22T13:21:12.446Z,1.60
2018-12-22T13:23:43.070Z,1.30
2018-12-22T13:26:13.547Z,1.90
2018-12-22T13:28:44.170Z,1.50
2018-12-22T13:31:17.002Z,2.30
2018-12-22T13:33:47.526Z,2.00
2018-12-22T13:36:20.232Z,2.37
2018-12-22T13:39:05.062Z,2.23
2018-12-22T13:41:36.913Z,2.20
2018-12-22T13:44:07.598Z,2.30
2018-12-22T13:46:38.212Z,2.37
2018-12-22T13:49:09.309Z,2.40
2018-12-22T13:51:43.142Z,2.37
2018-12-22T13:54:16.464Z,2.77
2018-12-22T13:56:46.981Z,2.57
2018-12-22T13:59:17.521Z,2.47
2018-12-22T14:01:54.573Z,2.80
2018-12-22T14:07:10.894Z,3.23
2018-12-22T14:09:41.537Z,3.00
2018-12-22T14:12:12.142Z,2.63
2018-12-22T14:14:44.463Z,2.60
2018-12-22T14:17:30.646Z,3.63
2018-12-22T14:20:07.474Z,5.73
2018-12-22T14:22:38.079Z,3.47
2018-12-22T14:25:23.641Z,3.53
2018-12-22T14:27:54.159Z,4.67
2018-12-22T14:30:32.271Z,2.73
2018-12-22T14:33:19.259Z,4.17
2018-12-22T14:35:56.430Z,3.70
2018-12-22T14:38:26.980Z,3.00
2018-12-22T14:40:57.499Z,3.17
2018-12-22T14:43:27.950Z,3.20
2018-12-22T14:45:58.447Z,3.33
2018-12-22T14:48:28.906Z,3.60
2018-12-22T14:50:59.382Z,3.40
2018-12-22T14:53:29.961Z,3.73
2018-12-22T14:56:00.632Z,3.47
2018-12-22T14:58:37.142Z,4.00
2018-12-22T15:01:07.816Z,3.73
2018-12-22T15:03:38.439Z,3.43
2018-12-22T15:06:09.042Z,3.70
2018-12-22T15:08:39.531Z,3.80
2018-12-22T15:11:10.123Z,4.03
2018-12-22T15:13:40.742Z,4.00
2018-12-22T15:16:11.345Z,3.30
2018-12-22T15:18:41.935Z,3.80
2018-12-22T15:21:12.517Z,2.93
2018-12-22T15:23:43.797Z,3.43
2018-12-22T15:26:14.332Z,3.77
2018-12-22T15:28:47.306Z,3.63
2018-12-22T15:31:17.460Z,3.70
2018-12-22T15:33:47.983Z,3.70
2018-12-22T15:36:18.521Z,3.63
2018-12-22T15:38:49.220Z,4.10
2018-12-22T15:41:19.772Z,4.00
2018-12-22T15:43:50.238Z,4.67
2018-12-22T15:46:20.985Z,4.53
2018-12-22T15:48:54.906Z,8.63
2018-12-22T15:51:25.381Z,8.27
2018-12-22T15:53:55.930Z,4.17
2018-12-22T15:56:26.988Z,4.63
2018-12-22T15:58:57.470Z,5.37
2018-12-22T16:01:27.986Z,5.50
2018-12-22T16:03:58.491Z,4.60
2018-12-22T16:06:29.092Z,4.90
2018-12-22T16:08:59.570Z,6.47
2018-12-22T16:11:30.084Z,4.80
2018-12-22T16:14:00.729Z,5.10
2018-12-22T16:16:32.934Z,4.67
2018-12-22T16:19:04.146Z,4.90
2018-12-22T16:21:35.499Z,4.27
2018-12-22T16:24:07.152Z,5.20
2018-12-22T16:26:39.069Z,5.63
2018-12-22T16:29:19.177Z,6.77
2018-12-22T16:31:49.653Z,7.27
2018-12-22T16:34:23.262Z,5.27
2018-12-22T16:36:55.383Z,6.23
2018-12-22T16:39:25.955Z,5.57
2018-12-22T16:41:56.481Z,6.33
2018-12-22T16:44:26.943Z,5.30
2018-12-22T16:46:57.402Z,4.87
2018-12-22T16:49:28.009Z,5.50
2018-12-22T16:51:58.509Z,5.47
2018-12-22T16:54:29.011Z,5.47
2018-12-22T16:56:59.537Z,5.20
2018-12-22T16:59:32.246Z,5.90
2018-12-22T17:02:16.088Z,5.30
2018-12-22T17:04:46.618Z,6.00
2018-12-22T17:07:17.132Z,5.70
2018-12-22T17:09:47.665Z,6.00
2018-12-22T17:12:18.299Z,5.50
2018-12-22T17:14:48.802Z,5.50
2018-12-22T17:17:19.309Z,5.70
2018-12-22T17:19:49.874Z,6.23
2018-12-22T17:23:34.362Z,5.83
2018-12-22T17:26:08.589Z,5.10
2018-12-22T17:28:39.137Z,6.30
2018-12-22T17:31:11.401Z,6.13
2018-12-22T17:33:42.336Z,5.77
2018-12-22T17:36:12.813Z,6.17
2018-12-22T17:38:43.389Z,6.57
2018-12-22T17:41:14.011Z,6.73
2018-12-22T17:43:46.954Z,7.03
2018-12-22T17:46:17.777Z,7.77
2018-12-22T17:48:48.325Z,6.20
2018-12-22T17:51:18.790Z,6.53
2018-12-22T17:53:49.377Z,7.10
2018-12-22T17:56:19.867Z,6.90
2018-12-22T17:58:50.454Z,6.97
2018-12-22T18:01:20.956Z,6.20
2018-12-22T18:03:51.453Z,5.70
2018-12-22T18:06:21.966Z,6.77
2018-12-22T18:08:52.544Z,6.83
2018-12-22T18:11:23.096Z,7.33
2018-12-22T18:13:53.659Z,6.70
2018-12-22T18:16:24.186Z,7.00
2018-12-22T18:18:54.780Z,7.23
2018-12-22T18:21:25.483Z,7.83
2018-12-22T18:23:56.043Z,6.73
2018-12-22T18:26:26.590Z,6.67
2018-12-22T18:28:57.109Z,6.70
2018-12-22T18:31:27.617Z,6.93
2018-12-22T18:33:58.106Z,6.40
2018-12-22T18:36:28.660Z,6.70
2018-12-22T18:38:59.188Z,7.60
2018-12-22T18:41:29.682Z,7.13
2018-12-22T18:44:00.189Z,6.83
2018-12-22T18:46:30.665Z,6.87
2018-12-22T18:49:01.205Z,6.87
2018-12-22T18:51:31.749Z,7.57
2018-12-22T18:54:02.294Z,7.17
2018-12-22T18:56:32.782Z,7.37
2018-12-22T18:59:03.346Z,6.97
2018-12-22T19:01:33.806Z,8.03
2018-12-22T19:04:04.342Z,7.27
2018-12-22T19:06:34.864Z,8.67
2018-12-22T19:09:09.801Z,8.87
2018-12-22T19:11:40.436Z,7.77
2018-12-22T19:14:10.950Z,7.30
2018-12-22T19:16:41.498Z,8.20
2018-12-22T19:19:12.011Z,7.97
2018-12-22T19:21:42.491Z,7.90
2018-12-22T19:24:12.942Z,7.53
2018-12-22T19:26:43.488Z,7.20
2018-12-22T19:29:13.969Z,7.03
2018-12-22T19:31:44.453Z,8.13
2018-12-22T19:34:15.083Z,8.00
2018-12-22T19:36:45.595Z,7.43
2018-12-22T19:39:16.109Z,7.87
2018-12-22T19:41:46.579Z,7.60
2018-12-22T19:44:17.053Z,8.33
2018-12-22T19:46:54.255Z,8.00
2018-12-22T19:49:25.481Z,8.40
2018-12-22T19:51:55.926Z,8.47
2018-12-22T19:54:26.489Z,8.97
2018-12-22T19:56:57.004Z,8.20
2018-12-22T19:59:27.485Z,8.47
2018-12-22T20:01:58.015Z,8.93
2018-12-22T20:04:28.505Z,8.30
2018-12-22T20:06:58.939Z,9.30
2018-12-22T20:09:29.418Z,9.40
2018-12-22T20:11:59.894Z,8.97
2018-12-22T20:14:30.385Z,9.20
2018-12-22T20:17:00.860Z,10.00
2018-12-22T20:19:35.486Z,9.30
2018-12-22T20:22:05.962Z,9.47
2018-12-22T20:24:36.492Z,9.43
2018-12-22T20:27:06.973Z,9.67
2018-12-22T20:29:37.479Z,10.13
2018-12-22T20:32:08.612Z,10.20
2018-12-22T20:34:41.570Z,10.60
2018-12-22T20:37:13.086Z,9.90
2018-12-22T20:39:43.855Z,11.13
2018-12-22T20:42:15.943Z,10.23
2018-12-22T20:44:46.471Z,10.43
2018-12-22T20:47:16.949Z,11.90
2018-12-22T20:49:47.408Z,11.47
2018-12-22T20:52:17.913Z,11.17
2018-12-22T20:54:48.495Z,10.03
2018-12-22T20:57:19.998Z,10.27
2018-12-22T20:59:51.586Z,10.50
2018-12-22T21:02:22.325Z,10.80
2018-12-22T21:04:53.198Z,10.50
2018-12-22T21:07:24.526Z,10.33
2018-12-22T21:09:56.061Z,11.17
2018-12-22T21:12:26.831Z,11.53
2018-12-22T21:14:57.296Z,11.53
2018-12-22T21:17:27.942Z,10.87
2018-12-22T21:19:58.634Z,11.00
2018-12-22T21:22:29.375Z,10.33
2018-12-22T21:25:00.904Z,10.53
2018-12-22T21:27:31.567Z,10.87
2018-12-22T21:30:02.052Z,9.90
2018-12-22T21:32:32.597Z,11.20
2018-12-22T21:35:03.066Z,10.77
2018-12-22T21:37:33.614Z,10.57
2018-12-22T21:40:05.255Z,11.20
2018-12-22T21:42:36.002Z,10.73
2018-12-22T21:45:06.839Z,11.70
2018-12-22T21:47:37.720Z,11.37
2018-12-22T21:50:08.266Z,11.37
2018-12-22T21:52:38.801Z,11.63
2018-12-22T21:55:10.310Z,12.00
2018-12-22T21:57:41.058Z,13.07
2018-12-22T22:00:11.708Z,11.73
2018-12-22T22:02:42.563Z,11.53
2018-12-22T22:05:13.561Z,11.47
2018-12-22T22:07:51.048Z,11.73
2018-12-22T22:10:21.915Z,12.53
2018-12-22T22:12:52.623Z,10.93
2018-12-22T22:15:26.104Z,10.70
2018-12-22T22:17:56.773Z,10.47
2018-12-22T22:20:27.524Z,10.33
2018-12-22T22:22:58.179Z,11.00
2018-12-22T22:25:38.490Z,11.67
2018-12-22T22:28:11.106Z,11.90
2018-12-22T22:30:54.204Z,11.40
2018-12-22T22:33:25.832Z,10.87
2018-12-22T22:35:56.529Z,11.23
2018-12-22T22:38:29.136Z,11.90
2018-12-22T22:40:59.859Z,11.20
2018-12-22T22:43:30.342Z,12.43
2018-12-22T22:46:00.842Z,10.07
2018-12-22T22:48:31.382Z,10.70
2018-12-22T22:51:01.887Z,10.67
2018-12-22T22:53:32.341Z,10.47
2018-12-22T22:56:02.829Z,9.53
2018-12-22T22:58:33.324Z,9.27
2018-12-22T23:01:03.852Z,9.03
2018-12-22T23:03:34.448Z,9.60
2018-12-22T23:06:05.051Z,8.80
2018-12-22T23:08:35.674Z,8.50
2018-12-22T23:11:06.229Z,8.87
2018-12-22T23:13:36.798Z,8.30
2018-12-22T23:16:08.968Z,9.50
2018-12-22T23:18:39.653Z,8.60
2018-12-22T23:21:10.147Z,8.80
2018-12-22T23:23:40.664Z,9.50
2018-12-22T23:26:11.167Z,9.07
2018-12-22T23:28:41.618Z,9.73
2018-12-22T23:31:12.124Z,10.77
2018-12-22T23:33:42.607Z,10.10
2018-12-22T23:36:13.108Z,11.07
2018-12-22T23:38:43.643Z,9.03
2018-12-22T23:41:14.252Z,9.33
2018-12-22T23:43:44.738Z,8.87
2018-12-22T23:46:15.233Z,9.70
2018-12-22T23:48:45.676Z,10.07
2018-12-22T23:51:16.214Z,10.10
2018-12-22T23:53:46.710Z,10.57
2018-12-22T23:56:17.265Z,11.33
2018-12-22T23:58:47.735Z,11.10
